Date,TemperatureHighF,TemperatureAvgF,TemperatureLowF,DewpointHighF,DewpointAvgF,DewpointLowF,HumidityHigh,HumidityAvg,HumidityLow,PressureMaxIn,PressureMinIn,WindSpeedMaxMPH,WindSpeedAvgMPH,GustSpeedMaxMPH,PrecipitationSumIn
2013-1-1,48,35,24,25,17,5,99,55,24,0.00,40.00,10,2,26,0.03
2013-1-2,57,40,33,14,8,3,42,28,15,0.00,40.00,14,4,31,0.02
2013-1-3,59,40,32,14,8,1,46,28,14,0.00,40.00,9,1,20,0.00
2013-1-4,58,38,30,11,4,-8,40,26,7,0.00,40.00,3,0,10,0.00
2013-1-5,60,41,31,12,6,-8,35,24,6,0.00,40.00,4,1,9,0.00
2013-1-6,45,34,32,35,25,7,99,73,28,0.00,40.00,7,2,16,0.00
2013-1-7,55,38,28,33,21,10,99,57,20,0.00,40.00,11,2,31,0.00
2013-1-8,66,47,32,25,16,7,41,30,15,0.00,40.00,4,2,10,0.00
2013-1-9,67,50,38,30,24,19,60,38,25,0.00,40.00,5,1,11,0.00
2013-1-10,41,34,24,38,30,19,99,90,43,0.00,40.00,9,6,24,0.10
2013-1-11,38,28,17,24,17,12,98,68,37,0.00,40.00,6,2,20,0.02
2013-1-12,42,26,17,21,12,4,97,60,24,0.00,40.00,4,1,11,0.00
2013-1-13,41,27,18,15,9,4,67,48,22,0.00,40.00,5,2,13,0.00
2013-1-14,41,26,16,7,-1,-8,52,32,14,0.00,40.00,4,2,15,0.00
2013-1-15,50,33,21,15,6,-5,48,34,19,0.00,40.00,4,1,17,0.00
2013-1-16,61,47,31,22,17,5,57,32,14,0.00,40.00,16,3,38,0.00
2013-1-17,68,53,42,12,7,-2,27,16,8,0.00,40.00,16,6,38,0.00
2013-1-18,71,48,39,20,12,6,34,24,10,0.00,40.00,10,3,22,0.00
2013-1-19,69,49,38,13,7,-4,28,19,8,0.00,40.00,5,2,14,0.00
2013-1-20,70,48,37,8,0,-7,20,14,5,0.00,40.00,6,1,11,0.00
2013-1-21,70,49,37,3,-3,-9,18,12,4,0.00,40.00,6,2,18,0.00
2013-1-22,75,51,40,16,3,-7,29,16,4,0.00,40.00,7,3,15,0.00
2013-1-23,65,54,46,39,28,16,58,37,24,0.00,40.00,8,2,20,0.00
2013-1-24,59,48,43,52,45,32,99,90,58,0.00,40.00,9,3,19,0.17
2013-1-25,52,48,45,52,48,45,99,99,97,0.00,40.00,7,3,14,0.72
2013-1-26,49,47,44,49,47,44,100,100,99,0.00,40.00,4,2,12,0.92
2013-1-27,49,40,32,49,39,32,100,96,80,0.00,40.00,7,3,18,0.47
2013-1-28,42,32,25,33,27,19,99,81,50,0.00,40.00,7,3,22,0.15
2013-1-29,49,35,24,35,28,21,99,78,51,0.00,40.00,6,2,14,0.01
2013-1-30,62,48,35,33,29,22,79,50,31,0.00,40.00,6,2,17,0.00
2013-1-31,65,52,38,31,28,21,66,42,26,0.00,40.00,3,1,9,0.00
2013-2-1,68,50,38,30,23,14,55,37,17,0.00,40.00,4,1,11,0.00
2013-2-2,69,53,40,39,25,18,71,36,22,0.00,40.00,4,1,9,0.00
2013-2-3,61,48,37,45,38,31,99,73,44,0.00,40.00,3,1,11,0.04
2013-2-4,65,49,37,34,30,24,79,50,27,0.00,40.00,6,1,14,0.01
2013-2-5,64,49,36,43,29,17,95,51,24,0.00,40.00,6,2,15,0.00
2013-2-6,60,45,36,36,26,15,81,49,30,0.00,40.00,5,1,10,0.00
2013-2-7,63,43,33,37,26,16,95,55,19,0.00,40.00,5,1,12,0.00
2013-2-8,35,30,28,34,29,27,96,95,92,0.00,40.00,8,5,24,0.00
2013-2-9,36,29,20,34,28,18,97,94,90,0.00,40.00,4,1,11,0.00
2013-2-10,45,32,20,38,28,18,96,87,58,0.00,40.00,3,0,9,0.00
2013-2-11,47,31,23,27,17,9,94,62,25,0.00,40.00,6,1,16,0.18
2013-2-12,52,36,24,17,12,8,61,40,20,0.00,40.00,3,1,10,0.34
2013-2-13,59,44,30,18,14,6,51,32,16,0.00,40.00,4,1,11,0.23
2013-2-14,64,49,36,26,19,13,46,32,20,0.00,40.00,16,3,24,0.01
2013-2-15,65,54,44,18,5,-13,30,15,5,0.00,40.00,16,8,36,0.00
2013-2-16,69,55,40,10,2,-9,27,13,6,0.00,40.00,16,7,33,0.00
2013-2-17,60,46,34,29,16,5,72,33,17,0.00,40.00,6,2,17,0.00
2013-2-18,65,44,32,29,22,10,76,45,14,0.00,40.00,6,2,13,0.00
2013-2-19,38,33,29,33,30,19,95,88,57,0.00,40.00,7,3,18,0.04
2013-2-20,37,30,24,34,28,22,96,93,87,0.00,40.00,9,3,22,0.02
2013-2-21,48,31,22,34,26,20,95,84,52,0.00,40.00,4,0,11,0.21
2013-2-22,60,37,22,28,20,15,93,57,18,0.00,40.00,4,1,10,0.59
2013-2-23,54,40,30,27,23,17,76,52,30,0.00,40.00,9,3,19,0.28
2013-2-24,53,39,30,27,8,-3,78,31,16,0.00,40.00,11,4,25,0.01
2013-2-25,58,41,28,18,10,1,50,31,13,0.00,40.00,6,2,16,0.00
2013-2-26,61,44,32,16,9,-3,44,25,15,0.00,40.00,8,4,20,0.00
2013-2-27,61,45,32,16,8,1,36,23,13,0.00,40.00,4,1,13,0.00
2013-2-28,68,49,34,15,9,0,30,20,13,0.00,40.00,9,3,20,0.00
2013-3-1,71,55,39,18,14,10,30,20,12,0.00,40.00,14,7,30,0.00
2013-3-2,76,56,43,22,16,7,30,21,10,0.00,40.00,7,2,16,0.00
2013-3-3,64,52,40,27,22,7,60,32,20,0.00,40.00,8,5,17,0.00
2013-3-4,60,46,35,40,33,21,92,62,39,0.00,40.00,5,2,11,0.00
2013-3-5,67,50,34,42,31,22,87,51,23,0.00,40.00,6,2,16,0.00
2013-3-6,54,42,34,37,34,30,95,75,47,0.00,40.00,7,3,17,0.00
2013-3-7,46,38,30,40,35,28,95,88,68,0.00,40.00,5,1,13,0.04
2013-3-8,40,33,32,36,30,28,95,91,73,0.00,40.00,7,2,17,0.03
2013-3-9,50,36,32,38,33,30,96,89,61,0.00,40.00,5,2,12,1.17
2013-3-10,64,46,32,33,24,16,95,47,19,0.00,40.00,4,1,13,0.78
2013-3-11,68,51,37,28,20,9,44,30,16,0.00,40.00,5,1,12,0.08
2013-3-12,76,57,42,30,23,12,46,28,15,0.00,40.00,9,2,19,0.00
2013-3-13,81,62,47,31,24,16,42,25,13,0.00,40.00,8,2,20,0.00
2013-3-14,86,64,51,36,26,16,42,25,10,0.00,40.00,7,2,15,0.00
2013-3-15,79,62,48,36,28,19,39,29,15,0.00,40.00,6,2,14,0.00
2013-3-16,72,58,46,39,25,7,64,30,19,0.00,40.00,6,2,15,0.00
2013-3-17,69,54,43,42,33,23,90,49,23,0.00,40.00,4,1,11,0.00
2013-3-18,67,53,41,42,32,12,80,48,24,0.00,40.00,4,1,10,0.00
2013-3-19,66,52,40,41,36,28,95,59,28,0.00,40.00,10,3,27,0.00
2013-3-20,68,54,44,39,34,27,78,48,27,0.00,40.00,8,3,20,0.00
2013-3-21,68,53,42,41,37,29,91,56,27,0.00,40.00,9,2,21,0.00
2013-3-22,68,50,34,43,37,22,96,68,23,0.00,40.00,6,2,16,0.00
2013-3-23,70,52,38,32,22,10,70,36,10,0.00,40.00,6,2,14,0.00
2013-3-24,72,54,37,30,25,12,55,35,19,0.00,40.00,5,1,13,0.00
2013-3-25,74,55,41,33,26,20,52,34,17,0.00,40.00,5,1,13,0.00
2013-3-26,69,53,42,29,24,18,52,33,15,0.00,40.00,6,2,15,0.00
2013-3-27,66,51,41,38,26,17,51,38,31,0.00,40.00,8,2,19,0.00
2013-3-28,70,60,46,36,31,29,53,35,22,0.00,40.00,7,4,16,0.00
2013-3-29,74,56,42,38,31,26,60,41,20,0.00,40.00,6,2,16,0.00
2013-3-30,70,57,42,43,33,-100,74,45,27,0.00,40.00,7,2,16,0.00
2013-3-31,63,49,39,43,35,22,94,61,36,0.00,40.00,6,3,16,0.00
2013-4-1,59,46,36,42,38,33,95,76,43,0.00,40.00,8,4,18,0.00
2013-4-2,68,52,34,43,37,30,94,62,28,0.00,40.00,6,2,15,0.00
2013-4-3,78,58,41,35,30,24,70,39,17,0.00,40.00,7,2,15,0.00
2013-4-4,72,57,46,38,32,24,69,40,23,0.00,40.00,9,3,21,0.00
2013-4-5,65,52,41,48,38,24,95,62,35,0.00,40.00,7,3,17,0.00
2013-4-6,67,51,38,47,42,35,97,74,41,0.00,40.00,8,2,18,0.00
2013-4-7,68,53,37,47,41,33,97,70,39,0.00,40.00,5,2,12,0.00
2013-4-8,45,39,33,42,37,32,97,92,79,0.00,40.00,10,4,25,0.14
2013-4-9,61,44,32,32,24,13,96,53,16,0.00,40.00,7,3,19,0.02
2013-4-10,71,54,39,22,16,10,41,25,10,0.00,40.00,6,2,21,0.01
2013-4-11,71,57,45,42,28,15,74,36,19,0.00,40.00,6,2,17,0.00
2013-4-12,78,58,44,43,32,24,68,41,14,0.00,40.00,8,2,19,0.00
2013-4-13,73,60,43,42,33,20,75,40,19,0.00,40.00,7,3,18,0.00
2013-4-14,57,46,41,43,36,14,96,69,30,0.00,40.00,6,2,13,0.00
2013-4-15,47,42,38,46,40,37,99,93,74,0.00,40.00,9,6,19,0.00
2013-4-16,50,40,32,38,32,20,98,74,41,0.00,40.00,8,5,19,0.00
2013-4-17,60,44,29,24,15,4,79,38,12,0.00,40.00,5,2,17,0.00
2013-4-18,65,50,36,11,6,0,30,17,11,0.00,40.00,9,3,22,0.00
2013-4-19,74,57,41,16,7,-3,26,14,8,0.00,40.00,5,2,16,0.00
2013-4-20,82,62,46,27,20,13,35,22,11,0.00,40.00,6,2,16,0.00
2013-4-21,81,63,48,31,24,14,37,24,11,0.00,40.00,7,2,16,0.00
2013-4-22,76,60,46,35,25,14,59,28,17,0.00,40.00,7,3,18,0.00
2013-4-23,78,60,45,38,31,19,59,36,12,0.00,40.00,5,2,12,0.00
2013-4-24,76,55,42,47,32,18,98,49,16,0.00,40.00,8,2,16,0.00
2013-4-25,62,47,38,44,40,37,99,83,45,0.00,40.00,5,2,12,0.01
2013-4-26,75,59,41,42,34,19,92,45,12,0.00,40.00,6,2,14,0.01
2013-4-27,85,66,49,36,23,11,45,23,7,0.00,40.00,8,3,25,0.00
2013-4-28,85,69,54,35,25,12,36,21,10,0.00,40.00,7,3,18,0.00
2013-4-29,84,71,54,36,26,11,42,20,14,0.00,40.00,6,3,16,0.00
2013-4-30,74,62,49,45,35,17,87,40,18,0.00,40.00,6,2,14,0.00
2013-5-1,81,64,46,31,16,-6,50,21,6,0.00,40.00,11,6,25,0.00
2013-5-2,82,65,51,2,-4,-10,10,6,3,0.00,40.00,14,6,31,0.00
2013-5-3,85,66,49,18,7,-5,17,10,6,0.00,40.00,8,2,17,0.00
2013-5-4,76,60,44,43,21,9,74,26,10,0.00,40.00,7,2,17,0.00
2013-5-5,62,51,43,44,34,13,97,57,23,0.00,40.00,8,3,18,0.00
2013-5-6,53,45,40,49,43,39,98,95,68,0.00,40.00,6,3,15,0.32
2013-5-7,53,44,40,46,41,38,98,89,60,0.00,40.00,5,3,15,0.30
2013-5-8,61,48,41,48,42,40,97,83,49,0.00,40.00,5,3,15,0.03
2013-5-9,65,52,39,49,44,38,98,78,48,0.00,40.00,5,2,15,0.01
2013-5-10,76,59,45,47,38,-100,96,53,26,0.00,40.00,5,2,18,0.01
2013-5-11,86,68,50,43,32,-100,63,32,14,0.00,40.00,10,4,23,0.00
2013-5-12,90,72,55,34,29,22,37,23,10,0.00,40.00,8,2,20,0.00
2013-5-13,92,74,55,42,31,26,39,23,12,0.00,40.00,7,2,19,0.00
2013-5-14,87,69,51,30,23,12,29,19,8,0.00,40.00,7,3,18,0.00
2013-5-15,76,61,49,42,30,14,64,32,21,0.00,40.00,7,2,17,0.00
2013-5-16,75,54,47,46,25,-100,94,50,22,0.00,40.00,7,3,16,0.00
2013-5-17,68,54,46,49,40,-100,96,69,40,0.00,40.00,8,3,18,0.00
2013-5-18,72,56,42,48,45,41,97,72,37,0.00,40.00,7,2,16,0.00
2013-5-19,78,61,42,47,44,37,96,60,28,0.00,40.00,6,2,17,0.00
2013-5-20,85,67,53,45,31,19,73,29,13,0.00,40.00,7,3,19,0.00
2013-5-21,82,66,50,37,30,21,47,28,14,0.00,40.00,7,3,18,0.00
2013-5-22,76,60,43,42,30,19,85,36,13,0.00,40.00,8,3,19,0.00
2013-5-23,70,53,39,42,35,19,94,55,27,0.00,40.00,6,2,16,0.00
2013-5-24,72,60,41,40,32,-13,88,41,8,0.00,40.00,6,3,13,0.00
2013-5-25,71,58,42,41,29,-4,84,39,7,0.00,40.00,6,2,15,0.00
2013-5-26,70,55,41,41,35,25,84,51,24,0.00,40.00,7,3,16,0.00
2013-5-27,76,58,45,48,40,28,88,56,29,0.00,40.00,6,2,17,0.00
2013-5-28,70,57,46,51,45,38,94,68,45,0.00,40.00,8,3,20,0.00
2013-5-29,81,62,46,49,40,31,83,50,22,0.00,40.00,9,3,24,0.00
2013-5-30,83,68,50,47,41,30,81,41,23,0.00,40.00,7,2,15,0.00
2013-5-31,89,71,54,48,42,31,68,38,22,0.00,40.00,5,2,13,0.00
2013-6-1,95,78,63,45,33,23,44,22,8,0.00,40.00,7,4,19,0.00
2013-6-2,86,73,57,45,36,27,61,28,16,0.00,40.00,6,2,15,0.00
2013-6-3,81,69,53,47,35,21,60,31,17,0.00,40.00,5,2,14,0.00
2013-6-4,83,68,52,45,32,6,73,31,6,0.00,40.00,5,2,14,0.00
2013-6-5,84,71,52,48,32,2,75,29,8,0.00,40.00,5,2,12,0.00
2013-6-6,86,71,56,50,37,18,65,32,15,0.00,40.00,5,2,14,0.00
2013-6-7,99,76,60,50,36,17,54,27,6,0.00,40.00,6,2,14,0.00
2013-6-8,99,77,64,51,37,19,53,27,6,0.00,40.00,7,2,19,0.00
2013-6-9,91,72,56,45,35,11,49,27,9,0.00,40.00,6,2,14,0.00
2013-6-10,85,70,53,42,27,2,49,22,8,0.00,40.00,7,3,17,0.00
2013-6-11,92,71,53,44,27,10,49,22,9,0.00,40.00,5,2,14,0.00
2013-6-12,87,72,55,47,38,23,52,30,18,0.00,40.00,6,2,14,0.00
2013-6-13,86,72,55,48,36,17,74,30,13,0.00,40.00,7,4,17,0.00
2013-6-14,85,73,55,39,24,-5,45,19,3,0.00,40.00,6,3,15,0.00
2013-6-15,83,73,51,39,28,0,54,23,4,0.00,40.00,6,3,14,0.00
2013-6-16,85,74,53,46,30,13,65,27,7,0.00,40.00,7,3,18,0.00
2013-6-17,85,72,53,43,34,18,53,29,10,0.00,40.00,8,3,15,0.00
2013-6-18,85,68,51,43,32,19,53,28,14,0.00,40.00,8,3,19,0.00
2013-6-19,83,66,50,44,32,14,69,32,15,0.00,40.00,7,3,15,0.00
2013-6-20,84,68,50,40,29,19,69,29,12,0.00,40.00,6,3,15,0.00
2013-6-21,83,79,73,41,35,31,32,21,16,0.00,40.00,8,6,19,0.00
2013-6-22,82,72,52,42,39,31,61,32,20,0.00,40.00,6,3,13,0.00
2013-6-23,78,64,51,45,40,32,79,45,22,0.00,40.00,7,3,17,0.00
2013-6-24,73,60,47,50,44,35,91,59,36,0.00,40.00,6,3,16,0.00
2013-6-25,82,65,50,53,49,45,95,61,33,0.00,40.00,7,3,15,0.00
2013-6-26,91,75,59,52,48,45,71,42,25,0.00,40.00,7,2,16,0.00
2013-6-27,94,76,63,50,46,40,59,39,17,0.00,40.00,8,2,16,0.00
2013-6-28,97,79,64,49,42,31,50,29,13,0.00,40.00,7,2,16,0.00
2013-6-29,103,86,67,47,37,24,48,20,9,0.00,40.00,6,3,16,0.00
2013-6-30,104,84,72,54,40,28,42,23,10,0.00,40.00,7,2,15,0.00
2013-7-1,93,81,68,49,43,39,41,27,17,0.00,40.00,8,2,17,0.00
2013-7-2,93,79,67,53,42,36,50,29,18,0.00,40.00,8,3,22,0.00
2013-7-3,93,80,67,48,41,35,38,25,17,0.00,40.00,8,4,17,0.00
2013-7-4,93,79,64,45,40,33,36,26,17,0.00,40.00,7,3,16,0.00
2013-7-5,93,77,65,46,41,32,49,30,18,0.00,40.00,7,2,14,0.00
2013-7-6,91,74,66,55,47,42,62,40,20,0.00,40.00,6,1,16,0.00
2013-7-7,93,82,64,47,32,26,51,18,11,0.00,40.00,7,4,18,0.00
2013-7-8,98,75,63,39,27,-100,28,19,9,0.00,40.00,6,2,17,0.00
2013-7-9,98,81,68,46,35,25,29,20,9,0.00,40.00,8,3,20,0.00
2013-7-10,91,74,64,52,40,-100,52,33,16,0.00,40.00,5,2,12,0.00
2013-7-11,74,67,59,55,49,39,69,53,39,0.00,40.00,3,1,9,0.00
2013-7-12,86,70,59,53,49,44,69,50,28,0.00,40.00,7,2,17,0.00
2013-7-13,91,73,59,52,45,33,69,42,13,0.00,40.00,7,2,17,0.00
2013-7-14,95,78,65,49,46,43,50,33,18,0.00,40.00,6,2,17,0.00
2013-7-15,91,77,66,43,39,35,41,27,17,0.00,40.00,11,3,26,0.00
2013-7-16,88,77,59,35,28,19,31,18,8,0.00,40.00,7,4,15,0.00
2013-7-17,92,74,55,39,23,11,35,17,6,0.00,40.00,8,3,16,0.00
2013-7-18,93,76,62,37,26,16,35,18,6,0.00,40.00,6,2,12,0.00
2013-7-19,93,78,66,41,31,20,34,19,9,0.00,40.00,6,2,13,0.00
2013-7-20,88,73,65,60,50,-100,73,47,27,0.00,40.00,9,3,18,0.00
2013-7-21,81,68,63,70,62,55,100,83,45,0.00,40.00,5,1,14,1.03
2013-7-22,80,67,59,70,61,57,100,84,52,0.00,40.00,6,1,12,0.03
2013-7-23,84,70,60,61,56,52,100,67,35,0.00,40.00,7,2,19,0.01
2013-7-24,89,74,62,56,52,44,70,49,27,0.00,40.00,8,3,17,0.00
2013-7-25,92,79,64,60,49,43,83,39,23,0.00,40.00,7,3,18,0.04
2013-7-26,86,72,65,60,51,43,77,48,28,0.00,40.00,5,1,11,0.07
2013-7-27,88,74,62,53,50,47,66,47,26,0.00,40.00,6,2,16,0.02
2013-7-28,85,72,59,51,37,21,63,31,17,0.00,40.00,8,3,17,0.00
2013-7-29,85,75,59,42,36,14,46,27,16,0.00,40.00,7,3,15,0.00
2013-7-30,86,73,61,47,43,36,50,34,22,0.00,40.00,6,3,15,0.00
2013-7-31,88,75,63,50,46,40,54,38,21,0.00,40.00,7,2,15,0.00
2013-8-1,89,74,59,40,34,10,37,24,8,0.00,40.00,7,3,14,0.00
2013-8-2,87,72,58,44,35,14,56,29,16,0.00,40.00,6,2,17,0.00
2013-8-3,87,73,58,45,35,2,56,29,4,0.00,40.00,6,2,14,0.00
2013-8-4,88,72,59,43,36,25,46,29,11,0.00,40.00,6,2,16,0.00
2013-8-5,90,75,61,36,27,12,39,19,8,0.00,40.00,7,3,15,0.00
2013-8-6,87,70,59,37,27,8,33,23,6,0.00,40.00,6,2,17,0.00
2013-8-7,84,70,56,39,27,17,47,22,9,0.00,40.00,9,4,22,0.00
2013-8-8,84,68,57,39,27,18,47,23,9,0.00,40.00,7,2,19,0.00
2013-8-9,82,66,55,33,26,13,39,24,8,0.00,40.00,7,2,15,0.00
2013-8-10,82,67,53,44,27,11,52,25,8,0.00,40.00,7,3,16,0.00
2013-8-11,85,69,54,43,35,25,54,33,14,0.00,40.00,7,2,17,0.00
2013-8-12,87,72,58,44,36,28,50,30,15,0.00,40.00,7,2,16,0.00
2013-8-13,91,75,59,45,32,-100,41,24,12,0.00,40.00,7,3,17,0.00
2013-8-14,97,75,62,41,32,-100,40,24,9,0.00,40.00,6,2,17,0.00
2013-8-15,94,73,65,39,27,-100,36,21,12,0.00,40.00,7,3,16,0.00
2013-8-16,93,76,65,48,40,-100,46,31,19,0.00,40.00,7,2,17,0.00
2013-8-17,95,80,67,48,43,-100,45,29,18,0.00,40.00,7,3,17,0.00
2013-8-18,95,79,70,50,46,42,40,32,21,0.00,40.00,11,4,20,0.00
2013-8-19,91,75,67,54,43,-100,51,35,21,0.00,40.00,12,4,24,0.00
2013-8-20,92,78,65,49,40,30,51,29,13,0.00,40.00,7,3,16,0.00
2013-8-21,95,78,65,44,37,32,39,25,12,0.00,40.00,7,2,17,0.00
2013-8-22,93,78,67,43,40,38,40,27,15,0.00,40.00,8,3,18,0.00
2013-8-23,93,76,63,45,40,34,41,29,16,0.00,40.00,7,2,18,0.00
2013-8-24,92,66,62,54,36,-100,65,36,12,0.00,40.00,7,3,18,0.00
2013-8-25,82,70,62,57,50,42,60,51,33,0.00,40.00,7,3,18,0.00
2013-8-26,72,67,63,60,54,48,77,64,54,0.00,40.00,7,3,14,0.02
2013-8-27,70,67,64,56,52,49,63,58,51,0.00,40.00,5,3,12,0.02
2013-8-28,90,80,69,53,51,49,51,38,29,0.00,40.00,7,3,16,0.00
2013-8-29,82,71,66,62,55,50,75,58,44,0.00,40.00,5,1,19,0.00
2013-8-30,81,71,65,68,62,57,100,77,48,0.00,40.00,6,2,13,0.38
2013-8-31,85,70,61,66,61,-100,100,76,43,0.00,40.00,6,2,15,0.01
2013-9-1,89,72,60,64,57,52,100,67,31,0.00,40.00,7,2,16,0.00
2013-9-2,87,68,61,62,54,46,84,64,30,0.00,40.00,5,1,12,0.16
2013-9-3,90,71,62,59,53,48,76,56,26,0.00,40.00,15,1,33,0.99
2013-9-4,86,71,62,57,53,49,76,55,31,0.00,40.00,7,1,19,0.38
2013-9-5,87,71,63,63,54,50,71,58,31,0.00,40.00,6,1,13,0.47
2013-9-6,91,72,63,56,51,47,63,49,28,0.00,40.00,6,1,14,0.02
2013-9-7,85,69,65,61,52,-100,72,58,32,0.00,40.00,8,4,21,0.06
2013-9-8,87,72,62,53,47,41,67,44,24,0.00,40.00,6,2,15,0.01
2013-9-9,85,71,63,48,46,41,56,42,25,0.00,40.00,8,3,17,0.00
2013-9-10,81,69,57,50,45,40,68,45,26,0.00,40.00,7,3,15,0.00
2013-9-11,83,68,57,42,36,27,55,33,19,0.00,40.00,7,2,14,0.00
2013-9-12,85,70,58,40,31,26,37,26,12,0.00,40.00,7,3,19,0.00
2013-9-13,90,73,59,41,32,23,40,24,11,0.00,40.00,6,2,15,0.00
2013-9-14,91,73,60,43,34,-100,40,27,13,0.00,40.00,7,2,15,0.00
2013-9-15,93,74,62,40,38,35,40,30,15,0.00,40.00,7,2,18,0.00
2013-9-16,92,74,62,43,38,33,45,29,14,0.00,40.00,8,2,17,0.00
2013-9-17,87,70,57,43,34,25,45,28,13,0.00,40.00,7,2,17,0.00
2013-9-18,58,56,54,44,26,5,62,34,13,0.00,40.00,1,0,7,0.00
2013-9-19,87,72,56,48,33,19,51,27,9,0.00,40.00,6,2,14,0.00
2013-9-20,84,68,56,48,37,24,54,34,13,0.00,40.00,7,2,16,0.00
2013-9-21,78,64,50,49,38,-100,95,47,4,0.00,40.00,7,5,18,0.00
2013-9-22,68,55,44,50,42,34,99,66,32,0.00,40.00,7,4,14,0.00
2013-9-23,86,67,51,36,29,21,57,27,12,0.00,40.00,5,2,13,0.00
2013-9-24,83,66,53,38,30,25,40,29,15,0.00,40.00,7,3,22,0.00
2013-9-25,73,64,45,41,28,21,86,26,22,0.00,40.00,10,5,18,0.00
2013-9-26,60,50,41,41,38,32,91,67,34,0.00,40.00,8,4,18,0.00
2013-9-27,75,56,40,41,22,12,91,33,14,0.00,40.00,6,2,15,0.00
2013-9-28,81,59,45,19,12,-100,26,18,9,0.00,40.00,5,2,13,0.00
2013-9-29,81,61,47,25,18,15,30,21,9,0.00,40.00,7,2,18,0.00
2013-9-30,83,67,54,28,21,14,32,19,10,0.00,40.00,7,3,16,0.00
2013-10-1,73,61,54,37,32,28,44,35,19,0.00,40.00,6,2,15,0.00
2013-10-2,76,62,50,47,33,17,84,38,20,0.00,40.00,7,2,17,0.00
2013-10-3,68,56,43,50,36,24,87,50,28,0.00,40.00,8,3,17,0.00
2013-10-4,73,59,46,41,15,0,84,23,9,0.00,40.00,14,6,28,0.00
2013-10-5,78,66,53,6,3,0,14,9,6,0.00,40.00,13,6,37,0.00
2013-10-6,84,62,51,11,5,-4,15,11,6,0.00,40.00,5,2,23,0.00
2013-10-7,80,61,49,21,10,0,30,15,7,0.00,40.00,7,2,18,0.00
2013-10-8,70,55,44,45,25,9,94,38,13,0.00,40.00,6,2,16,0.00
2013-10-9,45,41,35,43,40,35,99,96,79,0.00,40.00,8,5,19,1.12
2013-10-10,56,44,33,41,37,33,99,79,54,0.00,40.00,8,3,15,1.09
2013-10-11,68,50,38,38,35,29,88,59,30,0.00,40.00,6,2,12,0.01
2013-10-12,70,52,41,43,34,-100,91,55,25,0.00,40.00,7,2,17,0.00
2013-10-13,64,50,41,43,34,22,93,58,21,0.00,40.00,7,2,16,0.00
2013-10-14,72,59,48,27,22,16,36,24,16,0.00,40.00,9,5,17,0.00
2013-10-15,74,58,48,26,20,14,32,24,15,0.00,40.00,8,4,15,0.00
2013-10-16,74,59,46,22,17,14,30,21,13,0.00,40.00,10,4,20,0.00
2013-10-17,72,56,45,24,18,11,38,24,13,0.00,40.00,6,2,13,0.00
2013-10-18,78,61,46,23,18,13,38,21,11,0.00,40.00,5,1,13,0.00
2013-10-19,80,58,49,20,12,-100,28,19,6,0.00,40.00,6,1,14,0.00
2013-10-20,78,63,50,29,18,9,41,21,9,0.00,40.00,7,2,15,0.00
2013-10-21,81,64,49,26,17,4,39,18,7,0.00,40.00,5,1,10,0.00
2013-10-22,79,69,57,22,16,12,24,14,9,0.00,40.00,11,6,21,0.00
2013-10-23,77,64,53,42,26,15,57,27,10,0.00,40.00,9,3,22,0.00
2013-10-24,75,61,49,42,30,17,67,34,15,0.00,40.00,6,2,11,0.00
2013-10-25,79,66,49,33,23,16,34,21,11,0.00,40.00,6,2,12,0.00
2013-10-26,78,63,52,25,19,-100,27,20,13,0.00,40.00,11,4,21,0.00
2013-10-27,75,59,43,40,24,19,88,29,12,0.00,40.00,9,4,21,0.00
2013-10-28,47,42,39,47,40,-100,100,96,88,0.00,40.00,10,8,28,0.30
2013-10-29,51,42,36,42,37,32,100,84,55,0.00,40.00,8,4,22,0.25
2013-10-30,62,46,32,41,35,30,100,72,35,0.00,40.00,5,2,11,0.01
2013-10-31,70,53,39,31,22,10,67,34,14,0.00,40.00,4,2,10,0.00
2013-11-1,75,58,46,26,20,15,34,24,14,0.00,40.00,8,3,16,0.00
2013-11-2,72,54,42,28,19,-100,45,27,12,0.00,40.00,8,2,15,0.00
2013-11-3,64,50,40,39,28,19,82,45,24,0.00,40.00,7,2,16,0.00
2013-11-4,51,42,37,44,35,22,99,78,47,0.00,40.00,5,1,11,0.00
2013-11-5,65,48,37,39,17,3,99,34,14,0.00,40.00,10,2,17,0.00
2013-11-6,71,55,40,12,2,-5,29,13,5,0.00,40.00,12,2,22,0.00
2013-11-7,78,60,49,12,7,-4,21,13,6,0.00,40.00,8,2,15,0.00
2013-11-8,74,54,47,12,9,5,22,17,8,0.00,40.00,5,1,12,0.00
2013-11-9,75,56,44,17,9,-100,23,16,9,0.00,40.00,6,2,12,0.00
2013-11-10,74,58,48,16,12,7,23,17,11,0.00,40.00,5,2,11,0.00
2013-11-11,77,59,49,27,17,5,28,20,11,0.00,40.00,8,2,18,0.00
2013-11-12,78,64,52,30,24,13,29,22,14,0.00,40.00,7,1,16,0.00
2013-11-13,81,65,55,26,22,14,28,20,12,0.00,40.00,7,2,13,0.00
2013-11-14,79,63,51,26,21,16,33,21,12,0.00,40.00,7,3,16,0.00
2013-11-15,57,49,42,45,35,23,99,63,33,0.00,40.00,5,2,13,0.00
2013-11-16,44,42,40,44,39,-100,99,93,65,0.00,40.00,6,3,13,0.08
2013-11-17,59,45,34,42,39,34,99,82,50,0.00,40.00,4,1,9,0.01
2013-11-18,62,47,36,45,39,30,99,77,43,0.00,40.00,5,1,11,0.00
2013-11-19,48,44,40,45,42,39,99,94,75,0.00,40.00,4,1,11,0.00
2013-11-20,48,44,41,48,43,41,99,97,80,0.00,40.00,6,2,12,0.00
2013-11-21,48,44,39,47,44,34,100,97,81,0.00,40.00,5,2,13,0.21
2013-11-22,43,38,33,41,35,29,99,88,74,0.00,40.00,5,2,10,0.34
2013-11-23,50,38,32,35,31,-100,99,79,52,0.00,40.00,4,1,9,0.01
2013-11-24,55,40,32,35,31,28,98,75,46,0.00,40.00,4,1,12,0.00
2013-11-25,61,45,33,33,28,25,84,55,29,0.00,40.00,5,1,10,0.00
2013-11-26,63,51,40,26,21,16,51,32,21,0.00,40.00,14,6,26,0.00
2013-11-27,63,51,41,24,22,19,45,33,21,0.00,40.00,11,7,26,0.00
2013-11-28,60,47,38,32,25,20,67,43,28,0.00,40.00,9,4,17,0.00
2013-11-29,55,45,40,42,32,23,90,61,43,0.00,40.00,7,3,14,0.08
2013-11-30,64,48,39,39,33,-100,87,59,36,0.00,40.00,6,1,10,0.02
2013-12-1,68,52,41,30,23,11,62,34,20,0.00,40.00,4,1,11,0.00
2013-12-2,69,54,45,22,15,6,33,22,13,0.00,40.00,4,1,12,0.00
2013-12-3,60,46,41,43,28,12,99,55,21,0.00,40.00,10,5,25,0.00
2013-12-4,47,37,28,43,31,23,99,81,49,0.00,40.00,11,4,27,0.05
2013-12-5,43,33,27,33,26,19,99,78,48,0.00,40.00,5,2,12,0.00
2013-12-6,45,34,27,32,28,22,99,82,46,0.00,40.00,6,2,13,0.01
2013-12-7,37,32,30,37,31,-100,99,96,81,0.00,40.00,13,8,35,0.25
2013-12-8,44,33,26,35,30,26,99,89,55,0.00,40.00,7,2,14,0.01
2013-12-9,49,34,25,26,12,-13,98,46,8,0.00,40.00,11,3,31,0.00
2013-12-10,61,45,35,8,-2,-13,32,15,8,0.00,40.00,11,3,31,0.00
2013-12-11,64,48,37,9,4,-2,25,17,7,0.00,40.00,6,2,14,0.00
2013-12-12,57,45,37,19,12,-1,43,27,13,0.00,40.00,6,2,13,0.00
2013-12-13,58,45,35,16,12,7,39,27,16,0.00,40.00,8,2,18,0.00
2013-12-14,64,50,40,14,8,-100,29,19,9,0.00,40.00,12,4,32,0.00
2013-12-15,71,63,54,16,7,-3,16,11,7,0.00,40.00,16,12,34,0.00
2013-12-16,75,66,57,21,16,3,19,14,9,0.00,40.00,13,6,27,0.00
2013-12-17,79,63,55,22,16,11,24,16,11,0.00,40.00,5,2,12,0.00
2013-12-18,67,54,38,27,18,9,57,27,15,0.00,40.00,4,1,12,0.00
2013-12-19,39,36,32,39,35,18,99,96,42,0.00,40.00,7,3,17,0.25
2013-12-20,49,37,30,37,31,25,99,81,48,0.00,40.00,5,1,12,0.17
2013-12-21,51,39,32,39,29,-100,99,72,38,0.00,40.00,4,1,9,0.04
2013-12-22,61,45,37,28,25,21,58,46,28,0.00,40.00,5,1,12,0.00
2013-12-23,64,51,39,29,23,14,58,34,21,0.00,40.00,9,3,22,0.00
2013-12-24,70,56,45,24,19,13,38,25,16,0.00,40.00,8,2,16,0.00
2013-12-25,70,54,45,16,9,-5,27,18,5,0.00,40.00,10,4,28,0.00
2013-12-26,65,57,49,6,1,-9,15,10,6,0.00,40.00,17,7,38,0.00
2013-12-27,72,58,46,12,4,-8,23,13,7,0.00,40.00,11,3,20,0.00
2013-12-28,65,50,42,13,7,-100,23,18,9,0.00,40.00,8,2,16,0.00
2013-12-29,63,49,40,10,3,-12,25,15,9,0.00,40.00,6,2,17,0.00
2013-12-30,68,53,41,4,-2,-18,19,11,6,0.00,40.00,6,2,10,0.00
2013-12-31,69,51,40,9,2,-10,24,14,6,0.00,40.00,6,1,12,0.00
2014-1-1,72,56,42,13,9,4,21,16,9,0.00,40.00,4,2,11,0.00
2014-1-2,73,54,43,21,16,11,31,23,14,0.00,40.00,5,2,10,0.00